SAS13TM LEMI-LMML
Flight info
| Callsign | SAS13TM |
|---|---|
| Flight time | 1h 58m |
| Altitude | 35000 |
| Route | ALT L150 LABRO UA31 BABOR UZ888 DIMAO UL874 OMENI/N0436F290 L30 GZO |
| Aircraft | B738/M-SDGIJ1LRWY/SB1 |
Departure
| Time | 2026-04-15 13:52 |
|---|---|
| Airport | Region of Murcia International Airport (LEMI) |
Arrival
| Time | 2026-04-15 15:51 |
|---|---|
| Airport | Malta International Airport (LMML) |
| Time | Latitude | Longitude | Altitude | Speed | Heading |
|---|---|---|---|---|---|
| 2026-04-15 13:19 | 37.80423 | -1.13022 | 644 ft | 0 kts | 315° |
| 2026-04-15 13:41 | 37.80422 | -1.13021 | 645 ft | 1 kts | 316° |
| 2026-04-15 13:41 | 37.80411 | -1.13009 | 645 ft | 2 kts | 315° |
| 2026-04-15 13:41 | 37.80400 | -1.12995 | 644 ft | 1 kts | 316° |
| 2026-04-15 13:42 | 37.80394 | -1.12987 | 644 ft | 2 kts | 310° |
| 2026-04-15 13:42 | 37.80387 | -1.12970 | 643 ft | 2 kts | 282° |
| 2026-04-15 13:42 | 37.80386 | -1.12951 | 643 ft | 2 kts | 259° |
| 2026-04-15 13:42 | 37.80391 | -1.12933 | 642 ft | 2 kts | 237° |
| 2026-04-15 13:43 | 37.80396 | -1.12925 | 642 ft | 1 kts | 224° |
| 2026-04-15 13:43 | 37.80400 | -1.12920 | 642 ft | 0 kts | 225° |
| 2026-04-15 13:44 | 37.80396 | -1.12925 | 642 ft | 2 kts | 225° |
| 2026-04-15 13:45 | 37.80382 | -1.12943 | 642 ft | 4 kts | 225° |
| 2026-04-15 13:45 | 37.80354 | -1.12978 | 642 ft | 7 kts | 225° |
| 2026-04-15 13:45 | 37.80319 | -1.13024 | 642 ft | 6 kts | 226° |
| 2026-04-15 13:47 | 37.80021 | -1.13156 | 639 ft | 8 kts | 225° |
| 2026-04-15 13:47 | 37.79976 | -1.13214 | 639 ft | 10 kts | 225° |
| 2026-04-15 13:47 | 37.79918 | -1.13289 | 640 ft | 12 kts | 226° |
| 2026-04-15 13:48 | 37.79851 | -1.13375 | 640 ft | 14 kts | 225° |
| 2026-04-15 13:48 | 37.79781 | -1.13465 | 639 ft | 13 kts | 226° |
| 2026-04-15 13:48 | 37.79714 | -1.13552 | 637 ft | 13 kts | 225° |
| 2026-04-15 13:48 | 37.79650 | -1.13634 | 638 ft | 12 kts | 226° |
| 2026-04-15 13:49 | 37.79591 | -1.13708 | 636 ft | 12 kts | 225° |
| 2026-04-15 13:49 | 37.79534 | -1.13782 | 634 ft | 9 kts | 226° |
| 2026-04-15 13:49 | 37.79488 | -1.13838 | 632 ft | 9 kts | 214° |
| 2026-04-15 13:49 | 37.79450 | -1.13846 | 631 ft | 0 kts | 160° |
| 2026-04-15 13:50 | 37.79443 | -1.13842 | 631 ft | 4 kts | 154° |
| 2026-04-15 13:51 | 37.79413 | -1.13810 | 631 ft | 6 kts | 127° |
| 2026-04-15 13:51 | 37.79399 | -1.13750 | 630 ft | 7 kts | 94° |
| 2026-04-15 13:51 | 37.79398 | -1.13681 | 630 ft | 6 kts | 90° |
| 2026-04-15 13:51 | 37.79411 | -1.13635 | 631 ft | 4 kts | 49° |
| 2026-04-15 13:52 | 37.79460 | -1.13569 | 632 ft | 34 kts | 46° |
| 2026-04-15 13:52 | 37.79841 | -1.13079 | 631 ft | 119 kts | 45° |
| 2026-04-15 13:52 | 37.80592 | -1.12100 | 659 ft | 185 kts | 49° |
| 2026-04-15 13:52 | 37.81466 | -1.10883 | 1514 ft | 183 kts | 51° |
| 2026-04-15 13:53 | 37.82319 | -1.09750 | 2185 ft | 185 kts | 48° |
| 2026-04-15 13:53 | 37.83334 | -1.08601 | 2505 ft | 199 kts | 41° |
| 2026-04-15 13:53 | 37.84426 | -1.07564 | 2917 ft | 211 kts | 40° |
| 2026-04-15 13:53 | 37.85596 | -1.06296 | 3227 ft | 224 kts | 45° |
| 2026-04-15 13:54 | 37.86742 | -1.04867 | 3546 ft | 237 kts | 46° |
| 2026-04-15 13:54 | 37.87924 | -1.03394 | 3929 ft | 246 kts | 44° |
| 2026-04-15 13:54 | 37.89177 | -1.01880 | 4398 ft | 251 kts | 43° |
| 2026-04-15 13:54 | 37.90455 | -1.00360 | 4858 ft | 256 kts | 43° |
| 2026-04-15 13:55 | 37.91805 | -0.98760 | 5393 ft | 273 kts | 43° |
| 2026-04-15 13:55 | 37.93197 | -0.97111 | 6282 ft | 275 kts | 42° |
| 2026-04-15 13:55 | 37.94597 | -0.95447 | 7050 ft | 279 kts | 42° |
| 2026-04-15 13:55 | 37.95996 | -0.93780 | 7802 ft | 282 kts | 41° |
| 2026-04-15 13:56 | 37.97432 | -0.92069 | 8564 ft | 285 kts | 41° |
| 2026-04-15 13:56 | 37.98879 | -0.90351 | 9317 ft | 289 kts | 41° |
| 2026-04-15 13:56 | 38.00345 | -0.88603 | 10143 ft | 291 kts | 41° |
| 2026-04-15 13:56 | 38.01817 | -0.86848 | 10797 ft | 299 kts | 41° |
| 2026-04-15 13:57 | 38.03382 | -0.84986 | 11271 ft | 314 kts | 40° |
| 2026-04-15 13:57 | 38.05015 | -0.83042 | 11718 ft | 329 kts | 40° |
| 2026-04-15 13:57 | 38.06711 | -0.81020 | 12140 ft | 344 kts | 40° |
| 2026-04-15 13:57 | 38.08493 | -0.78895 | 12545 ft | 358 kts | 41° |
| 2026-04-15 13:58 | 38.10336 | -0.76692 | 13142 ft | 366 kts | 41° |
| 2026-04-15 13:58 | 38.12170 | -0.74495 | 13817 ft | 370 kts | 41° |
| 2026-04-15 13:58 | 38.14058 | -0.72241 | 14472 ft | 375 kts | 41° |
| 2026-04-15 13:58 | 38.15972 | -0.69963 | 15127 ft | 379 kts | 40° |
| 2026-04-15 13:59 | 38.17894 | -0.67676 | 15766 ft | 383 kts | 40° |
| 2026-04-15 13:59 | 38.19781 | -0.65254 | 16376 ft | 388 kts | 46° |
| 2026-04-15 13:59 | 38.21318 | -0.62426 | 16970 ft | 397 kts | 59° |
| 2026-04-15 13:59 | 38.22285 | -0.59111 | 17554 ft | 406 kts | 73° |
| 2026-04-15 14:00 | 38.22624 | -0.55549 | 18123 ft | 414 kts | 85° |
| 2026-04-15 14:00 | 38.22448 | -0.51842 | 18673 ft | 423 kts | 96° |
| 2026-04-15 14:00 | 38.21630 | -0.48276 | 19197 ft | 432 kts | 111° |
| 2026-04-15 14:00 | 38.20128 | -0.44936 | 19731 ft | 438 kts | 121° |
| 2026-04-15 14:01 | 38.16562 | -0.38591 | 20770 ft | 447 kts | 124° |
| 2026-04-15 14:01 | 38.14676 | -0.35415 | 21276 ft | 451 kts | 125° |
| 2026-04-15 14:01 | 38.12783 | -0.32238 | 21762 ft | 455 kts | 126° |
| 2026-04-15 14:02 | 38.10873 | -0.29021 | 22243 ft | 458 kts | 125° |
| 2026-04-15 14:02 | 38.08953 | -0.25770 | 22716 ft | 462 kts | 125° |
| 2026-04-15 14:02 | 38.07040 | -0.22512 | 23173 ft | 465 kts | 125° |
| 2026-04-15 14:02 | 38.05107 | -0.19207 | 23624 ft | 469 kts | 125° |
| 2026-04-15 14:03 | 38.03171 | -0.15885 | 24065 ft | 472 kts | 125° |
| 2026-04-15 14:03 | 38.01232 | -0.12551 | 24506 ft | 475 kts | 125° |
| 2026-04-15 14:03 | 37.99263 | -0.09161 | 24952 ft | 479 kts | 125° |
| 2026-04-15 14:03 | 37.97277 | -0.05745 | 25396 ft | 483 kts | 125° |
| 2026-04-15 14:04 | 37.95275 | -0.02303 | 25834 ft | 486 kts | 125° |
| 2026-04-15 14:04 | 37.93290 | 0.01108 | 26260 ft | 490 kts | 125° |
| 2026-04-15 14:04 | 37.91251 | 0.04609 | 26662 ft | 494 kts | 124° |
| 2026-04-15 14:04 | 37.89212 | 0.08109 | 27053 ft | 498 kts | 124° |
| 2026-04-15 14:05 | 37.87139 | 0.11664 | 27436 ft | 502 kts | 124° |
| 2026-04-15 14:05 | 37.85054 | 0.15236 | 27813 ft | 506 kts | 123° |
| 2026-04-15 14:05 | 37.82980 | 0.18786 | 28197 ft | 509 kts | 123° |
| 2026-04-15 14:05 | 37.80886 | 0.22365 | 28745 ft | 507 kts | 123° |
| 2026-04-15 14:06 | 37.78793 | 0.25936 | 29269 ft | 506 kts | 123° |
| 2026-04-15 14:06 | 37.76709 | 0.29487 | 29789 ft | 505 kts | 122° |
| 2026-04-15 14:06 | 37.74600 | 0.33081 | 30324 ft | 504 kts | 122° |
| 2026-04-15 14:06 | 37.72506 | 0.36643 | 30839 ft | 503 kts | 122° |
| 2026-04-15 14:07 | 37.70424 | 0.40183 | 31339 ft | 503 kts | 122° |
| 2026-04-15 14:07 | 37.68296 | 0.43796 | 31834 ft | 502 kts | 122° |
| 2026-04-15 14:07 | 37.66182 | 0.47381 | 32304 ft | 501 kts | 122° |
| 2026-04-15 14:07 | 37.64072 | 0.50958 | 32765 ft | 500 kts | 122° |
| 2026-04-15 14:08 | 37.62002 | 0.54462 | 33209 ft | 499 kts | 122° |
| 2026-04-15 14:08 | 37.59948 | 0.57936 | 33640 ft | 498 kts | 122° |
| 2026-04-15 14:08 | 37.57869 | 0.61447 | 34051 ft | 498 kts | 122° |
| 2026-04-15 14:08 | 37.55810 | 0.64919 | 34454 ft | 497 kts | 122° |
| 2026-04-15 14:09 | 37.53747 | 0.68398 | 34834 ft | 496 kts | 123° |
| 2026-04-15 14:09 | 37.51688 | 0.71865 | 35191 ft | 496 kts | 123° |
| 2026-04-15 14:09 | 37.49618 | 0.75350 | 35260 ft | 499 kts | 123° |
| 2026-04-15 14:10 | 37.45483 | 0.82293 | 35273 ft | 493 kts | 123° |
| 2026-04-15 14:10 | 37.41384 | 0.89153 | 35195 ft | 491 kts | 122° |
| 2026-04-15 14:11 | 37.37273 | 0.96025 | 35185 ft | 494 kts | 122° |
| 2026-04-15 14:11 | 37.33136 | 1.02925 | 35200 ft | 495 kts | 122° |
| 2026-04-15 14:12 | 37.29013 | 1.09783 | 35206 ft | 494 kts | 122° |
| 2026-04-15 14:12 | 37.24806 | 1.16616 | 35211 ft | 496 kts | 124° |
| 2026-04-15 14:13 | 37.20408 | 1.23234 | 35214 ft | 498 kts | 126° |
| 2026-04-15 14:13 | 37.15912 | 1.29845 | 35214 ft | 498 kts | 126° |
| 2026-04-15 14:14 | 37.11411 | 1.36469 | 35216 ft | 498 kts | 125° |
| 2026-04-15 14:14 | 37.06961 | 1.43052 | 35219 ft | 498 kts | 125° |
| 2026-04-15 14:15 | 37.02496 | 1.49675 | 35224 ft | 499 kts | 125° |
| 2026-04-15 14:15 | 36.98184 | 1.56422 | 35229 ft | 498 kts | 121° |
| 2026-04-15 14:16 | 36.94056 | 1.63335 | 35228 ft | 496 kts | 120° |
| 2026-04-15 14:16 | 36.89946 | 1.70280 | 35227 ft | 497 kts | 121° |
| 2026-04-15 14:17 | 36.85836 | 1.77157 | 35228 ft | 498 kts | 121° |
| 2026-04-15 14:17 | 36.81646 | 1.84099 | 35228 ft | 499 kts | 121° |
| 2026-04-15 14:18 | 36.77479 | 1.90958 | 35229 ft | 499 kts | 121° |
| 2026-04-15 14:18 | 36.73280 | 1.97842 | 35230 ft | 500 kts | 121° |
| 2026-04-15 14:19 | 36.69062 | 2.04740 | 35230 ft | 501 kts | 121° |
| 2026-04-15 14:19 | 36.64867 | 2.11625 | 35228 ft | 500 kts | 119° |
| 2026-04-15 14:20 | 36.61723 | 2.19142 | 35230 ft | 478 kts | 97° |
| 2026-04-15 14:20 | 36.61082 | 2.23108 | 35231 ft | 464 kts | 86° |
| 2026-04-15 14:20 | 36.60944 | 2.27057 | 35232 ft | 455 kts | 79° |
| 2026-04-15 14:21 | 36.61356 | 2.34815 | 35224 ft | 447 kts | 73° |
| 2026-04-15 14:21 | 36.62085 | 2.42447 | 35215 ft | 445 kts | 72° |
| 2026-04-15 14:22 | 36.62851 | 2.50062 | 35213 ft | 446 kts | 72° |
| 2026-04-15 14:22 | 36.63582 | 2.57675 | 35214 ft | 446 kts | 73° |
| 2026-04-15 14:23 | 36.64282 | 2.65327 | 35213 ft | 446 kts | 73° |
| 2026-04-15 14:23 | 36.64965 | 2.73005 | 35212 ft | 447 kts | 73° |
| 2026-04-15 14:24 | 36.65635 | 2.80680 | 35211 ft | 446 kts | 73° |
| 2026-04-15 14:24 | 36.66293 | 2.88303 | 35209 ft | 446 kts | 73° |
| 2026-04-15 14:25 | 36.66954 | 2.96000 | 35209 ft | 446 kts | 73° |
| 2026-04-15 14:25 | 36.67602 | 3.03620 | 35209 ft | 445 kts | 73° |
| 2026-04-15 14:26 | 36.68249 | 3.11277 | 35208 ft | 445 kts | 73° |
| 2026-04-15 14:26 | 36.68825 | 3.18932 | 35210 ft | 449 kts | 76° |
| 2026-04-15 14:27 | 36.68678 | 3.26796 | 35216 ft | 461 kts | 84° |
| 2026-04-15 14:27 | 36.67923 | 3.34716 | 35221 ft | 464 kts | 87° |
| 2026-04-15 14:28 | 36.67015 | 3.42653 | 35221 ft | 464 kts | 87° |
| 2026-04-15 14:28 | 36.66106 | 3.50582 | 35218 ft | 463 kts | 87° |
| 2026-04-15 14:29 | 36.65220 | 3.58511 | 35211 ft | 463 kts | 86° |
| 2026-04-15 14:29 | 36.64330 | 3.66446 | 35205 ft | 463 kts | 87° |
| 2026-04-15 14:30 | 36.63426 | 3.74363 | 35204 ft | 465 kts | 87° |
| 2026-04-15 14:30 | 36.62512 | 3.82304 | 35204 ft | 465 kts | 87° |
| 2026-04-15 14:31 | 36.61596 | 3.90251 | 35205 ft | 466 kts | 87° |
| 2026-04-15 14:31 | 36.60676 | 3.98210 | 35203 ft | 466 kts | 87° |
| 2026-04-15 14:32 | 36.59752 | 4.06155 | 35115 ft | 466 kts | 87° |
| 2026-04-15 14:32 | 36.58820 | 4.14116 | 35008 ft | 465 kts | 87° |
| 2026-04-15 14:33 | 36.57891 | 4.22018 | 34889 ft | 465 kts | 87° |
| 2026-04-15 14:33 | 36.56950 | 4.29982 | 34760 ft | 464 kts | 87° |
| 2026-04-15 14:34 | 36.56012 | 4.37877 | 34681 ft | 465 kts | 87° |
| 2026-04-15 14:34 | 36.55061 | 4.45841 | 34635 ft | 465 kts | 87° |
| 2026-04-15 14:35 | 36.54111 | 4.53743 | 34619 ft | 465 kts | 87° |
| 2026-04-15 14:35 | 36.53152 | 4.61681 | 34600 ft | 465 kts | 87° |
| 2026-04-15 14:36 | 36.52190 | 4.69591 | 34579 ft | 466 kts | 88° |
| 2026-04-15 14:36 | 36.51221 | 4.77519 | 34546 ft | 466 kts | 88° |
| 2026-04-15 14:37 | 36.50241 | 4.85474 | 34475 ft | 465 kts | 88° |
| 2026-04-15 14:37 | 36.49262 | 4.93377 | 34407 ft | 463 kts | 89° |
| 2026-04-15 14:38 | 36.48401 | 5.01258 | 34373 ft | 459 kts | 84° |
| 2026-04-15 14:38 | 36.48140 | 5.09095 | 34289 ft | 453 kts | 81° |
| 2026-04-15 14:39 | 36.48119 | 5.16885 | 34211 ft | 452 kts | 80° |
| 2026-04-15 14:39 | 36.48112 | 5.24701 | 34133 ft | 452 kts | 81° |
| 2026-04-15 14:40 | 36.48067 | 5.32477 | 34114 ft | 452 kts | 81° |
| 2026-04-15 14:40 | 36.47990 | 5.40275 | 34326 ft | 449 kts | 81° |
| 2026-04-15 14:40 | 36.47942 | 5.44094 | 34584 ft | 446 kts | 82° |
| 2026-04-15 14:41 | 36.47892 | 5.47946 | 34835 ft | 444 kts | 82° |
| 2026-04-15 14:41 | 36.47840 | 5.51783 | 35095 ft | 442 kts | 82° |
| 2026-04-15 14:41 | 36.47788 | 5.55557 | 35271 ft | 443 kts | 82° |
| 2026-04-15 14:42 | 36.47688 | 5.63313 | 35257 ft | 454 kts | 83° |
| 2026-04-15 14:42 | 36.47575 | 5.71129 | 35274 ft | 451 kts | 83° |
| 2026-04-15 14:42 | 36.47513 | 5.74969 | 35392 ft | 451 kts | 84° |
| 2026-04-15 14:43 | 36.47449 | 5.78881 | 35574 ft | 450 kts | 84° |
| 2026-04-15 14:43 | 36.47385 | 5.82722 | 35796 ft | 448 kts | 84° |
| 2026-04-15 14:43 | 36.47321 | 5.86590 | 35828 ft | 453 kts | 84° |
| 2026-04-15 14:43 | 36.47258 | 5.90526 | 35703 ft | 457 kts | 84° |
| 2026-04-15 14:44 | 36.47192 | 5.94427 | 35535 ft | 456 kts | 84° |
| 2026-04-15 14:44 | 36.47122 | 5.98387 | 35322 ft | 455 kts | 84° |
| 2026-04-15 14:44 | 36.47049 | 6.02261 | 35228 ft | 451 kts | 84° |
| 2026-04-15 14:45 | 36.46903 | 6.10062 | 35196 ft | 455 kts | 84° |
| 2026-04-15 14:45 | 36.46755 | 6.17888 | 35179 ft | 454 kts | 84° |
| 2026-04-15 14:46 | 36.46600 | 6.25727 | 35179 ft | 454 kts | 84° |
| 2026-04-15 14:46 | 36.46441 | 6.33508 | 35180 ft | 454 kts | 85° |
| 2026-04-15 14:47 | 36.46275 | 6.41356 | 35174 ft | 454 kts | 85° |
| 2026-04-15 14:47 | 36.46105 | 6.49160 | 35167 ft | 454 kts | 85° |
| 2026-04-15 14:48 | 36.45931 | 6.56956 | 35157 ft | 454 kts | 85° |
| 2026-04-15 14:48 | 36.45750 | 6.64811 | 35151 ft | 454 kts | 85° |
| 2026-04-15 14:49 | 36.45565 | 6.72616 | 35154 ft | 455 kts | 86° |
| 2026-04-15 14:49 | 36.45376 | 6.80408 | 35156 ft | 454 kts | 86° |
| 2026-04-15 14:50 | 36.45180 | 6.88239 | 35158 ft | 454 kts | 86° |
| 2026-04-15 14:50 | 36.44979 | 6.96077 | 35159 ft | 454 kts | 86° |
| 2026-04-15 14:51 | 36.44774 | 7.03901 | 35158 ft | 454 kts | 86° |
| 2026-04-15 14:51 | 36.44564 | 7.11683 | 35148 ft | 454 kts | 86° |
| 2026-04-15 14:52 | 36.44347 | 7.19529 | 35215 ft | 454 kts | 87° |
| 2026-04-15 14:52 | 36.44127 | 7.27346 | 35291 ft | 456 kts | 87° |
| 2026-04-15 14:53 | 36.43901 | 7.35159 | 35199 ft | 454 kts | 87° |
| 2026-04-15 14:53 | 36.43670 | 7.42950 | 35132 ft | 454 kts | 88° |
| 2026-04-15 14:54 | 36.43434 | 7.50770 | 35121 ft | 455 kts | 88° |
| 2026-04-15 14:54 | 36.43193 | 7.58585 | 35119 ft | 454 kts | 88° |
| 2026-04-15 14:55 | 36.42946 | 7.66422 | 35112 ft | 455 kts | 89° |
| 2026-04-15 14:55 | 36.42695 | 7.74214 | 35102 ft | 454 kts | 89° |
| 2026-04-15 14:56 | 36.42439 | 7.82037 | 35088 ft | 455 kts | 89° |
| 2026-04-15 14:56 | 36.42176 | 7.89883 | 35078 ft | 455 kts | 89° |
| 2026-04-15 14:57 | 36.41910 | 7.97679 | 35045 ft | 455 kts | 89° |
| 2026-04-15 14:57 | 36.41636 | 8.05515 | 34991 ft | 456 kts | 89° |
| 2026-04-15 14:58 | 36.41360 | 8.13321 | 34910 ft | 456 kts | 89° |
| 2026-04-15 14:58 | 36.41077 | 8.21163 | 34809 ft | 456 kts | 89° |
| 2026-04-15 14:59 | 36.40788 | 8.29010 | 34780 ft | 453 kts | 89° |
| 2026-04-15 14:59 | 36.40641 | 8.32898 | 34887 ft | 454 kts | 90° |
| 2026-04-15 14:59 | 36.40440 | 8.36797 | 34975 ft | 457 kts | 92° |
| 2026-04-15 15:00 | 36.39481 | 8.44670 | 35071 ft | 468 kts | 98° |
| 2026-04-15 15:00 | 36.38176 | 8.52613 | 35064 ft | 473 kts | 99° |
| 2026-04-15 15:01 | 36.36821 | 8.60558 | 35064 ft | 470 kts | 99° |
| 2026-04-15 15:01 | 36.35502 | 8.68463 | 35058 ft | 470 kts | 98° |
| 2026-04-15 15:02 | 36.34200 | 8.76409 | 35054 ft | 469 kts | 98° |
| 2026-04-15 15:02 | 36.32922 | 8.84297 | 35053 ft | 469 kts | 97° |
| 2026-04-15 15:03 | 36.31646 | 8.92192 | 35050 ft | 468 kts | 97° |
| 2026-04-15 15:03 | 36.30370 | 9.00068 | 35048 ft | 468 kts | 98° |
| 2026-04-15 15:04 | 36.29081 | 9.07990 | 35049 ft | 469 kts | 98° |
| 2026-04-15 15:04 | 36.27792 | 9.15878 | 35050 ft | 469 kts | 98° |
| 2026-04-15 15:05 | 36.26497 | 9.23767 | 35049 ft | 469 kts | 98° |
| 2026-04-15 15:05 | 36.25201 | 9.31622 | 35047 ft | 469 kts | 98° |
| 2026-04-15 15:06 | 36.23622 | 9.43500 | 35041 ft | 467 kts | 95° |
| 2026-04-15 15:06 | 36.22744 | 9.51477 | 35038 ft | 467 kts | 95° |
| 2026-04-15 15:07 | 36.21858 | 9.59407 | 35035 ft | 468 kts | 95° |
| 2026-04-15 15:07 | 36.20938 | 9.67357 | 35032 ft | 468 kts | 96° |
| 2026-04-15 15:08 | 36.19991 | 9.75337 | 35029 ft | 468 kts | 96° |
| 2026-04-15 15:08 | 36.19035 | 9.83275 | 35028 ft | 468 kts | 96° |
| 2026-04-15 15:09 | 36.18068 | 9.91225 | 35025 ft | 469 kts | 96° |
| 2026-04-15 15:09 | 36.17095 | 9.99173 | 35021 ft | 469 kts | 96° |
| 2026-04-15 15:10 | 36.16115 | 10.07141 | 35013 ft | 469 kts | 97° |
| 2026-04-15 15:10 | 36.14957 | 10.15010 | 34999 ft | 470 kts | 102° |
| 2026-04-15 15:11 | 36.13136 | 10.22757 | 34986 ft | 471 kts | 106° |
| 2026-04-15 15:11 | 36.11038 | 10.30462 | 34979 ft | 471 kts | 107° |
| 2026-04-15 15:12 | 36.08918 | 10.38105 | 34975 ft | 471 kts | 107° |
| 2026-04-15 15:12 | 36.07327 | 10.45868 | 34972 ft | 468 kts | 96° |
| 2026-04-15 15:13 | 36.06813 | 10.53861 | 34967 ft | 467 kts | 90° |
| 2026-04-15 15:13 | 36.06662 | 10.61831 | 34967 ft | 466 kts | 89° |
| 2026-04-15 15:14 | 36.06543 | 10.69816 | 34968 ft | 466 kts | 90° |
| 2026-04-15 15:14 | 36.06375 | 10.77820 | 34969 ft | 466 kts | 90° |
| 2026-04-15 15:15 | 36.06164 | 10.85820 | 34969 ft | 466 kts | 90° |
| 2026-04-15 15:15 | 36.05931 | 10.93755 | 34969 ft | 466 kts | 91° |
| 2026-04-15 15:16 | 36.05682 | 11.01740 | 34968 ft | 466 kts | 91° |
| 2026-04-15 15:16 | 36.05425 | 11.09693 | 34967 ft | 466 kts | 91° |
| 2026-04-15 15:17 | 36.05161 | 11.17696 | 34967 ft | 466 kts | 91° |
| 2026-04-15 15:17 | 36.04894 | 11.25647 | 34966 ft | 466 kts | 91° |
| 2026-04-15 15:18 | 36.04621 | 11.33607 | 34964 ft | 466 kts | 91° |
| 2026-04-15 15:18 | 36.04345 | 11.41613 | 34962 ft | 466 kts | 91° |
| 2026-04-15 15:19 | 36.04071 | 11.49531 | 34960 ft | 465 kts | 92° |
| 2026-04-15 15:19 | 36.03968 | 11.57517 | 34959 ft | 465 kts | 89° |
| 2026-04-15 15:20 | 36.04075 | 11.65504 | 34957 ft | 465 kts | 89° |
| 2026-04-15 15:20 | 36.04203 | 11.73415 | 34953 ft | 465 kts | 89° |
| 2026-04-15 15:21 | 36.04304 | 11.81416 | 34948 ft | 465 kts | 89° |
| 2026-04-15 15:21 | 36.04377 | 11.89352 | 34947 ft | 465 kts | 89° |
| 2026-04-15 15:22 | 36.04434 | 11.97354 | 34947 ft | 465 kts | 89° |
| 2026-04-15 15:22 | 36.04480 | 12.05316 | 34945 ft | 465 kts | 90° |
| 2026-04-15 15:23 | 36.04520 | 12.13259 | 34943 ft | 465 kts | 90° |
| 2026-04-15 15:23 | 36.04554 | 12.21284 | 34943 ft | 465 kts | 90° |
| 2026-04-15 15:24 | 36.04582 | 12.29224 | 34943 ft | 465 kts | 90° |
| 2026-04-15 15:24 | 36.04606 | 12.37206 | 34943 ft | 466 kts | 90° |
| 2026-04-15 15:25 | 36.04623 | 12.45159 | 34943 ft | 466 kts | 90° |
| 2026-04-15 15:25 | 36.04636 | 12.53184 | 34943 ft | 465 kts | 90° |
| 2026-04-15 15:26 | 36.04641 | 12.57137 | 34780 ft | 459 kts | 90° |
| 2026-04-15 15:26 | 36.04644 | 12.61040 | 34443 ft | 453 kts | 90° |
| 2026-04-15 15:26 | 36.04645 | 12.64889 | 33936 ft | 453 kts | 90° |
| 2026-04-15 15:26 | 36.04646 | 12.68750 | 33303 ft | 456 kts | 91° |
| 2026-04-15 15:27 | 36.04644 | 12.72717 | 32628 ft | 459 kts | 91° |
| 2026-04-15 15:27 | 36.04642 | 12.76647 | 32040 ft | 459 kts | 91° |
| 2026-04-15 15:27 | 36.04640 | 12.80569 | 31431 ft | 459 kts | 91° |
| 2026-04-15 15:27 | 36.04636 | 12.84439 | 30835 ft | 458 kts | 91° |
| 2026-04-15 15:28 | 36.04631 | 12.88357 | 30241 ft | 457 kts | 91° |
| 2026-04-15 15:28 | 36.04624 | 12.92294 | 29640 ft | 456 kts | 91° |
| 2026-04-15 15:28 | 36.04616 | 12.96135 | 28995 ft | 451 kts | 92° |
| 2026-04-15 15:28 | 36.04608 | 12.99990 | 28384 ft | 445 kts | 92° |
| 2026-04-15 15:29 | 36.04599 | 13.03779 | 27785 ft | 438 kts | 92° |
| 2026-04-15 15:29 | 36.04589 | 13.07469 | 27175 ft | 432 kts | 92° |
| 2026-04-15 15:29 | 36.04578 | 13.11133 | 26542 ft | 424 kts | 92° |
| 2026-04-15 15:29 | 36.04566 | 13.14740 | 25957 ft | 415 kts | 92° |
| 2026-04-15 15:30 | 36.04553 | 13.18253 | 25389 ft | 406 kts | 92° |
| 2026-04-15 15:30 | 36.04539 | 13.21704 | 24856 ft | 397 kts | 93° |
| 2026-04-15 15:30 | 36.04525 | 13.25090 | 24353 ft | 389 kts | 93° |
| 2026-04-15 15:30 | 36.04510 | 13.28396 | 23840 ft | 385 kts | 93° |
| 2026-04-15 15:31 | 36.04494 | 13.31659 | 23325 ft | 382 kts | 93° |
| 2026-04-15 15:31 | 36.04478 | 13.34928 | 22817 ft | 378 kts | 93° |
| 2026-04-15 15:31 | 36.04463 | 13.38144 | 22318 ft | 375 kts | 93° |
| 2026-04-15 15:31 | 36.04448 | 13.41334 | 21815 ft | 372 kts | 93° |
| 2026-04-15 15:32 | 36.04431 | 13.44504 | 21310 ft | 369 kts | 93° |
| 2026-04-15 15:32 | 36.04413 | 13.47671 | 20802 ft | 367 kts | 94° |
| 2026-04-15 15:32 | 36.04395 | 13.50764 | 20305 ft | 364 kts | 94° |
| 2026-04-15 15:32 | 36.04376 | 13.53889 | 19801 ft | 362 kts | 94° |
| 2026-04-15 15:33 | 36.04356 | 13.56983 | 19300 ft | 360 kts | 94° |
| 2026-04-15 15:33 | 36.04335 | 13.60050 | 18804 ft | 357 kts | 94° |
| 2026-04-15 15:33 | 36.04313 | 13.63095 | 18308 ft | 354 kts | 94° |
| 2026-04-15 15:33 | 36.04291 | 13.66102 | 17819 ft | 352 kts | 94° |
| 2026-04-15 15:34 | 36.04269 | 13.69122 | 17327 ft | 349 kts | 94° |
| 2026-04-15 15:34 | 36.04245 | 13.72102 | 16839 ft | 346 kts | 94° |
| 2026-04-15 15:34 | 36.04222 | 13.75050 | 16354 ft | 343 kts | 94° |
| 2026-04-15 15:34 | 36.04198 | 13.77978 | 15872 ft | 341 kts | 94° |
| 2026-04-15 15:35 | 36.04172 | 13.80871 | 15396 ft | 338 kts | 94° |
| 2026-04-15 15:35 | 36.04147 | 13.83737 | 14923 ft | 335 kts | 94° |
| 2026-04-15 15:35 | 36.04121 | 13.86594 | 14449 ft | 333 kts | 94° |
| 2026-04-15 15:35 | 36.04095 | 13.89441 | 13977 ft | 331 kts | 94° |
| 2026-04-15 15:36 | 36.04069 | 13.92285 | 13504 ft | 329 kts | 94° |
| 2026-04-15 15:36 | 36.04042 | 13.95064 | 13042 ft | 327 kts | 94° |
| 2026-04-15 15:36 | 36.04014 | 13.97870 | 12576 ft | 325 kts | 93° |
| 2026-04-15 15:36 | 36.03983 | 14.00618 | 12118 ft | 323 kts | 93° |
| 2026-04-15 15:37 | 36.03949 | 14.03406 | 11652 ft | 321 kts | 93° |
| 2026-04-15 15:37 | 36.03914 | 14.06118 | 11198 ft | 319 kts | 93° |
| 2026-04-15 15:37 | 36.03878 | 14.08858 | 10740 ft | 317 kts | 93° |
| 2026-04-15 15:37 | 36.03843 | 14.11569 | 10356 ft | 313 kts | 92° |
| 2026-04-15 15:38 | 36.03812 | 14.14210 | 10164 ft | 302 kts | 92° |
| 2026-04-15 15:38 | 36.03783 | 14.16741 | 10062 ft | 289 kts | 92° |
| 2026-04-15 15:38 | 36.03754 | 14.19169 | 9848 ft | 281 kts | 92° |
| 2026-04-15 15:38 | 36.03851 | 14.21578 | 9460 ft | 282 kts | 84° |
| 2026-04-15 15:39 | 36.04167 | 14.23955 | 9114 ft | 280 kts | 80° |
| 2026-04-15 15:39 | 36.04562 | 14.26306 | 8774 ft | 278 kts | 79° |
| 2026-04-15 15:39 | 36.04954 | 14.28607 | 8442 ft | 276 kts | 79° |
| 2026-04-15 15:39 | 36.05336 | 14.30959 | 8106 ft | 277 kts | 80° |
| 2026-04-15 15:40 | 36.05695 | 14.33252 | 7773 ft | 275 kts | 80° |
| 2026-04-15 15:40 | 36.06052 | 14.35591 | 7437 ft | 273 kts | 80° |
| 2026-04-15 15:40 | 36.06397 | 14.37859 | 7110 ft | 271 kts | 80° |
| 2026-04-15 15:40 | 36.06742 | 14.40131 | 6783 ft | 269 kts | 80° |
| 2026-04-15 15:41 | 36.07080 | 14.42359 | 6580 ft | 259 kts | 80° |
| 2026-04-15 15:41 | 36.07406 | 14.44513 | 6387 ft | 252 kts | 80° |
| 2026-04-15 15:41 | 36.07727 | 14.46629 | 6097 ft | 250 kts | 80° |
| 2026-04-15 15:41 | 36.08045 | 14.48725 | 5794 ft | 247 kts | 80° |
| 2026-04-15 15:42 | 36.08361 | 14.50812 | 5490 ft | 246 kts | 80° |
| 2026-04-15 15:42 | 36.08672 | 14.52864 | 5188 ft | 245 kts | 80° |
| 2026-04-15 15:42 | 36.08984 | 14.54928 | 4883 ft | 243 kts | 80° |
| 2026-04-15 15:42 | 36.09292 | 14.56962 | 4586 ft | 239 kts | 80° |
| 2026-04-15 15:43 | 36.09539 | 14.58971 | 4319 ft | 234 kts | 87° |
| 2026-04-15 15:43 | 36.09333 | 14.60897 | 4171 ft | 226 kts | 114° |
| 2026-04-15 15:43 | 36.08431 | 14.62449 | 4062 ft | 216 kts | 140° |
| 2026-04-15 15:43 | 36.07252 | 14.63544 | 3988 ft | 213 kts | 146° |
| 2026-04-15 15:44 | 36.06028 | 14.64603 | 3908 ft | 215 kts | 146° |
| 2026-04-15 15:44 | 36.04802 | 14.65677 | 3683 ft | 216 kts | 146° |
| 2026-04-15 15:44 | 36.03599 | 14.66732 | 3433 ft | 212 kts | 146° |
| 2026-04-15 15:44 | 36.02398 | 14.67782 | 3205 ft | 211 kts | 146° |
| 2026-04-15 15:45 | 36.01178 | 14.68797 | 3075 ft | 209 kts | 152° |
| 2026-04-15 15:45 | 35.99809 | 14.69346 | 3026 ft | 209 kts | 180° |
| 2026-04-15 15:45 | 35.98430 | 14.68904 | 2991 ft | 197 kts | 212° |
| 2026-04-15 15:45 | 35.97423 | 14.67887 | 2999 ft | 185 kts | 228° |
| 2026-04-15 15:46 | 35.96621 | 14.66629 | 3001 ft | 185 kts | 236° |
| 2026-04-15 15:46 | 35.95898 | 14.65320 | 2999 ft | 184 kts | 237° |
| 2026-04-15 15:46 | 35.95169 | 14.64022 | 2997 ft | 184 kts | 236° |
| 2026-04-15 15:46 | 35.94449 | 14.62771 | 3006 ft | 173 kts | 236° |
| 2026-04-15 15:47 | 35.93766 | 14.61594 | 2837 ft | 164 kts | 236° |
| 2026-04-15 15:47 | 35.93132 | 14.60501 | 2646 ft | 153 kts | 237° |
| 2026-04-15 15:47 | 35.92518 | 14.59440 | 2428 ft | 150 kts | 237° |
| 2026-04-15 15:47 | 35.91915 | 14.58397 | 2233 ft | 150 kts | 237° |
| 2026-04-15 15:48 | 35.91307 | 14.57346 | 2031 ft | 149 kts | 237° |
| 2026-04-15 15:48 | 35.90702 | 14.56298 | 1822 ft | 150 kts | 237° |
| 2026-04-15 15:48 | 35.90111 | 14.55260 | 1629 ft | 148 kts | 237° |
| 2026-04-15 15:48 | 35.89506 | 14.54226 | 1430 ft | 148 kts | 236° |
| 2026-04-15 15:49 | 35.88905 | 14.53187 | 1234 ft | 148 kts | 236° |
| 2026-04-15 15:49 | 35.88299 | 14.52167 | 1057 ft | 147 kts | 236° |
| 2026-04-15 15:49 | 35.87713 | 14.51156 | 854 ft | 147 kts | 236° |
| 2026-04-15 15:49 | 35.87123 | 14.50117 | 656 ft | 146 kts | 236° |
| 2026-04-15 15:50 | 35.86545 | 14.49093 | 467 ft | 143 kts | 234° |
| 2026-04-15 15:50 | 35.85973 | 14.48111 | 287 ft | 140 kts | 234° |
| 2026-04-15 15:50 | 35.85472 | 14.47257 | 273 ft | 82 kts | 234° |
| 2026-04-15 15:50 | 35.85169 | 14.46736 | 292 ft | 66 kts | 235° |
| 2026-04-15 15:51 | 35.84943 | 14.46351 | 287 ft | 46 kts | 235° |
| 2026-04-15 15:51 | 35.84819 | 14.46133 | 287 ft | 20 kts | 234° |
| 2026-04-15 15:51 | 35.84796 | 14.46091 | 287 ft | 4 kts | 238° |
| 2026-04-15 15:51 | 35.84783 | 14.46022 | 286 ft | 9 kts | 283° |
| 2026-04-15 15:52 | 35.84829 | 14.45970 | 284 ft | 9 kts | 344° |
| 2026-04-15 15:52 | 35.84901 | 14.45982 | 281 ft | 11 kts | 26° |
| 2026-04-15 15:52 | 35.84952 | 14.46053 | 281 ft | 10 kts | 55° |
| 2026-04-15 15:52 | 35.84994 | 14.46127 | 280 ft | 10 kts | 55° |
| 2026-04-15 15:53 | 35.85038 | 14.46202 | 280 ft | 12 kts | 54° |
| 2026-04-15 15:53 | 35.85091 | 14.46295 | 281 ft | 13 kts | 56° |
| 2026-04-15 15:53 | 35.85147 | 14.46393 | 284 ft | 14 kts | 55° |
| 2026-04-15 15:53 | 35.85206 | 14.46493 | 286 ft | 14 kts | 54° |
| 2026-04-15 15:54 | 35.85265 | 14.46595 | 285 ft | 14 kts | 54° |
| 2026-04-15 15:54 | 35.85323 | 14.46695 | 284 ft | 14 kts | 54° |
| 2026-04-15 15:54 | 35.85382 | 14.46807 | 280 ft | 16 kts | 62° |
| 2026-04-15 15:54 | 35.85437 | 14.46944 | 275 ft | 19 kts | 59° |
| 2026-04-15 15:55 | 35.85508 | 14.47065 | 271 ft | 15 kts | 54° |
| 2026-04-15 15:55 | 35.85576 | 14.47176 | 267 ft | 16 kts | 53° |
| 2026-04-15 15:55 | 35.85642 | 14.47270 | 264 ft | 12 kts | 38° |
| 2026-04-15 15:55 | 35.85713 | 14.47346 | 262 ft | 13 kts | 49° |
| 2026-04-15 15:56 | 35.85772 | 14.47441 | 261 ft | 14 kts | 54° |
| 2026-04-15 15:56 | 35.85832 | 14.47543 | 258 ft | 15 kts | 61° |
| 2026-04-15 15:56 | 35.85838 | 14.47661 | 258 ft | 13 kts | 133° |
| 2026-04-15 15:56 | 35.85767 | 14.47735 | 261 ft | 14 kts | 139° |
| 2026-04-15 15:57 | 35.85690 | 14.47827 | 264 ft | 14 kts | 135° |
| 2026-04-15 15:57 | 35.85659 | 14.47944 | 263 ft | 16 kts | 82° |
| 2026-04-15 15:57 | 35.85663 | 14.48087 | 261 ft | 15 kts | 91° |
| 2026-04-15 15:57 | 35.85655 | 14.48184 | 261 ft | 9 kts | 116° |
| 2026-04-15 15:58 | 35.85600 | 14.48221 | 261 ft | 8 kts | 153° |
| 2026-04-15 15:58 | 35.85547 | 14.48279 | 261 ft | 11 kts | 135° |
| 2026-04-15 15:58 | 35.85489 | 14.48351 | 261 ft | 11 kts | 135° |
| 2026-04-15 15:58 | 35.85431 | 14.48422 | 261 ft | 11 kts | 134° |
| 2026-04-15 15:59 | 35.85370 | 14.48500 | 261 ft | 13 kts | 134° |
| 2026-04-15 15:59 | 35.85304 | 14.48582 | 261 ft | 14 kts | 134° |
| 2026-04-15 15:59 | 35.85233 | 14.48674 | 261 ft | 15 kts | 134° |
| 2026-04-15 15:59 | 35.85156 | 14.48771 | 261 ft | 16 kts | 134° |
| 2026-04-15 16:00 | 35.85078 | 14.48872 | 260 ft | 16 kts | 134° |
| 2026-04-15 16:00 | 35.85000 | 14.48972 | 258 ft | 16 kts | 134° |
| 2026-04-15 16:00 | 35.84934 | 14.49059 | 256 ft | 8 kts | 133° |
| 2026-04-15 16:00 | 35.84901 | 14.49122 | 253 ft | 9 kts | 95° |
| 2026-04-15 16:01 | 35.84932 | 14.49191 | 251 ft | 8 kts | 62° |
| 2026-04-15 16:01 | 35.84930 | 14.49261 | 250 ft | 7 kts | 114° |
| 2026-04-15 16:01 | 35.84901 | 14.49309 | 249 ft | 5 kts | 127° |
| 2026-04-15 16:01 | 35.84912 | 14.49339 | 248 ft | 4 kts | 7° |
| 2026-04-15 16:02 | 35.84937 | 14.49338 | 248 ft | 2 kts | 359° |
| 2026-04-15 16:02 | 35.84955 | 14.49338 | 248 ft | 2 kts | 359° |
| 2026-04-15 16:02 | 35.84958 | 14.49338 | 248 ft | 0 kts | 359° |